Historique des stations

Station météo de Droue-sur-Drouette

Altitude de la station : 120m m







Données météorologiques pour le 04/12/2022
Date
Heure
Températures Humidité Point de rosée Vitesse
du vent
Direction Rafales Windchill Pression Pluviométrie
Cumul
Date
Heure
Températures Humidité Point de rosée Vitesse
du vent
Direction Rafales Windchill Pression Pluviométrie
Cumul
04/12/2022 16:503.2 °C93 %2.2 °C4 km/hNE15 km/h01013 hPa1.8 mm
04/12/2022 16:303.2 °C92.9 %2.2 °C3 km/hENE10 km/h01013 hPa1.8 mm
04/12/2022 16:203.2 °C92.8 %2.2 °C5 km/hNE10 km/h01013 hPa1.8 mm
04/12/2022 16:003.2 °C92.9 %2.2 °C2 km/hENE6 km/h01013 hPa1.8 mm
04/12/2022 15:503.2 °C92.8 %2.2 °C2 km/hENE8 km/h01012 hPa1.8 mm
04/12/2022 15:303.1 °C92.7 %2.1 °C4 km/hENE10 km/h01012 hPa1.8 mm
04/12/2022 15:203.1 °C93.1 %2.1 °C2 km/hNE8 km/h01012 hPa1.8 mm
04/12/2022 15:003 °C93.7 %2.1 °C4 km/hENE13 km/h01012 hPa1.8 mm
04/12/2022 14:503 °C93.7 %2.1 °C5 km/hENE15 km/h01012 hPa1.8 mm
04/12/2022 14:253 °C93.5 %2 °C3 km/hNE10 km/h01012 hPa1.8 mm
04/12/2022 14:203 °C93.5 %2 °C5 km/hENE10 km/h01012 hPa1.8 mm
04/12/2022 14:003 °C93.5 %2.1 °C5 km/hENE15 km/h01012 hPa1.8 mm
04/12/2022 13:503 °C93.6 %2 °C4 km/hNE15 km/h01012 hPa1.8 mm
04/12/2022 13:302.9 °C93.7 %2 °C6 km/hNE15 km/h01012 hPa1.8 mm
04/12/2022 13:202.9 °C93.7 %2 °C5 km/hENE15 km/h01012 hPa1.8 mm
04/12/2022 13:002.9 °C94.2 %2 °C11 km/hENE18 km/h01012 hPa1.8 mm
04/12/2022 12:502.8 °C93.9 %1.9 °C5 km/hNE13 km/h01012 hPa1.8 mm
04/12/2022 12:302.7 °C94 %1.9 °C6 km/hENE15 km/h01012 hPa1.8 mm
04/12/2022 12:202.7 °C94.1 %1.9 °C5 km/hENE15 km/h01012 hPa1.8 mm
04/12/2022 12:002.6 °C93.6 %1.7 °C4 km/hENE13 km/h01012 hPa1.6 mm
04/12/2022 11:502.6 °C93.6 %1.7 °C4 km/hENE15 km/h01013 hPa1.6 mm
04/12/2022 11:302.5 °C93.4 %1.6 °C6 km/hENE16 km/h01013 hPa1.4 mm
04/12/2022 11:202.5 °C94.1 %1.6 °C6 km/hENE16 km/h01012 hPa1.4 mm
04/12/2022 11:002.3 °C94.1 %1.4 °C6 km/hNE18 km/h01012 hPa1.4 mm
04/12/2022 10:502.2 °C94.3 %1.4 °C6 km/hNE16 km/h01012 hPa1.2 mm
04/12/2022 10:302 °C93.8 %1.1 °C5 km/hENE13 km/h01012 hPa1.0 mm
04/12/2022 10:201.9 °C93.8 %1 °C5 km/hENE16 km/h01012 hPa1.0 mm
04/12/2022 10:001.7 °C93.1 %0.7 °C5 km/hNE11 km/h01012 hPa0.4 mm
04/12/2022 09:501.7 °C92.5 %0.6 °C4 km/hENE11 km/h01013 hPa0.2 mm
04/12/2022 09:301.9 °C91.3 %0.6 °C5 km/hENE15 km/h01012 hPa0.0 mm
04/12/2022 09:102 °C90.3 %0.6 °C7 km/hENE18 km/h01012 hPa0.0 mm
04/12/2022 09:002 °C89.7 %0.5 °C7 km/hENE18 km/h01012 hPa0.0 mm
04/12/2022 08:401.9 °C89.4 %0.4 °C8 km/hENE18 km/h01012 hPa0.0 mm
04/12/2022 08:301.9 °C89.3 %0.3 °C9 km/hENE16 km/h01012 hPa0.0 mm
04/12/2022 08:201.9 °C89.3 %0.3 °C8 km/hENE19 km/h01012 hPa0.0 mm
04/12/2022 08:001.9 °C89.1 %0.3 °C7 km/hENE18 km/h01012 hPa0.0 mm
04/12/2022 07:501.8 °C89.3 %0.3 °C7 km/hENE18 km/h01012 hPa0.0 mm
04/12/2022 07:301.8 °C89.7 %0.3 °C6 km/hENE15 km/h01012 hPa0.0 mm
04/12/2022 07:201.8 °C89.7 %0.3 °C7 km/hENE16 km/h01012 hPa0.0 mm
04/12/2022 07:001.8 °C89.7 %0.3 °C6 km/hENE18 km/h01012 hPa0.0 mm
04/12/2022 06:501.8 °C89.7 %0.3 °C8 km/hENE19 km/h01012 hPa0.0 mm
04/12/2022 06:301.7 °C89.7 %0.2 °C6 km/hENE15 km/h01012 hPa0.0 mm
04/12/2022 06:201.7 °C89.9 %0.2 °C7 km/hENE18 km/h01012 hPa0.0 mm
04/12/2022 06:001.7 °C90.1 %0.2 °C7 km/hENE21 km/h01012 hPa0.0 mm
04/12/2022 05:501.6 °C90.2 %0.2 °C8 km/hENE19 km/h01012 hPa0.0 mm
04/12/2022 05:301.6 °C90.2 %0.2 °C10 km/hENE19 km/h01012 hPa0.0 mm
04/12/2022 05:201.6 °C90.2 %0.1 °C8 km/hENE19 km/h01012 hPa0.0 mm
04/12/2022 05:001.6 °C90.1 %0.2 °C9 km/hNE18 km/h01012 hPa0.0 mm
04/12/2022 04:501.6 °C89.9 %0.1 °C7 km/hENE21 km/h01012 hPa0.0 mm
04/12/2022 04:301.6 °C89.8 %0.1 °C8 km/hENE19 km/h01012 hPa0.0 mm
04/12/2022 04:201.6 °C89.5 %0.1 °C12 km/hENE21 km/h01012 hPa0.0 mm
04/12/2022 04:001.6 °C89.7 %0.1 °C8 km/hENE19 km/h01012 hPa0.0 mm
04/12/2022 03:501.6 °C89.8 %0.1 °C8 km/hENE19 km/h01012 hPa0.0 mm
04/12/2022 03:301.6 °C89.6 %0 °C9 km/hENE19 km/h01013 hPa0.0 mm
04/12/2022 03:201.6 °C89.5 %0 °C10 km/hENE18 km/h01013 hPa0.0 mm
04/12/2022 03:001.6 °C89.6 %0 °C8 km/hENE19 km/h01013 hPa0.0 mm
04/12/2022 02:501.6 °C89.7 %0.1 °C7 km/hENE18 km/h01013 hPa0.0 mm
04/12/2022 02:301.6 °C90.3 %0.1 °C4 km/hENE11 km/h01013 hPa0.0 mm
04/12/2022 02:201.6 °C90.2 %0.1 °C6 km/hENE15 km/h01013 hPa0.0 mm
04/12/2022 02:001.7 °C89.6 %0.1 °C4 km/hNE16 km/h01013 hPa0.0 mm
04/12/2022 01:501.7 °C89.7 %0.2 °C6 km/hNE16 km/h01013 hPa0.0 mm
04/12/2022 01:301.7 °C89.7 %0.2 °C6 km/hNE18 km/h01013 hPa0.0 mm
04/12/2022 01:201.7 °C89.7 %0.2 °C7 km/hENE18 km/h01013 hPa0.0 mm
04/12/2022 00:501.8 °C89.3 %0.2 °C6 km/hENE15 km/h01013 hPa0.4 mm
04/12/2022 00:301.8 °C89.7 %0.3 °C5 km/hENE18 km/h01013 hPa0.4 mm
04/12/2022 00:201.8 °C89.5 %0.3 °C6 km/hENE18 km/h01013 hPa0.4 mm
04/12/2022 00:001.8 °C89.5 %0.3 °C8 km/hENE23 km/h01013 hPa0.4 mm


Minima :

Température : 1.6 °C
Humidité : 89.7 %
Point de rosée : 0 °C
Vent moyen : 2 km/h
Windchill : 0
Pression atm. : 1012 hPa
Maxima :

Température : 3.2 °C
Humidité : 94.2 %
Point de rosée : 2.2 °C
Vent moyen : 12 km/h
Windchill : 0
Pression atm. : 1013 hPa
Rafales max : 23 km/h
Cumul de pluie sur 24H : 1.8 mm

Droue-sur-drouette est une commune du département Eure-et-Loir (28).
La station météorologique du réseau de l'association la plus proche de Droue-sur-Drouette est celle de Maintenon
Site du propriétaire de la station : https://meteo.neel.ch/



Icône Facebook Association Météo Centre Icône Twitter Association Météo Centre Icône Chaîne Youtube Association Météo Centre Icône contact Association Météo Centre Icône Insta Association Météo Centre